Time;durP1;ratioP1;P1;durP2;ratioP2;P2;SDS_P1;SDS_P2;PMS_P1;PMS_P2;Temp;Humidity;BMP_temperature;BMP_pressure;BME280_temperature;BME280_humidity;BME280_pressure;Samples;Min_cycle;Max_cycle;Signal;HPM_P1;HPM_P2
2021/12/03 00:01:39;;;;;;;;;;;1.30;99.90;;;;;;4958838;28;19940;-86
2021/12/03 00:04:04;;;;;;;;;;;1.20;99.90;;;;;;4965809;28;19922;-86
2021/12/03 00:06:34;;;;;;;;;;;1.20;99.90;;;;;;4955444;28;19922;-86
2021/12/03 00:09:00;;;;;;;;;;;1.20;99.90;;;;;;4971560;28;19921;-86
2021/12/03 00:11:25;;;;;;;;;;;1.30;99.90;;;;;;4953578;28;20369;-86
2021/12/03 00:13:51;;;;;;;;;;;1.30;99.90;;;;;;4963721;28;19922;-87
2021/12/03 00:16:17;;;;;;;;;;;1.20;99.90;;;;;;4972305;28;19933;-86
2021/12/03 00:18:43;;;;;;;;;;;1.20;99.90;;;;;;4973383;28;19922;-87
2021/12/03 00:21:11;;;;;;;;;;;1.30;99.90;;;;;;4973222;28;19945;-86
2021/12/03 00:23:36;;;;;;;;;;;1.30;99.90;;;;;;4970005;28;19932;-87
2021/12/03 00:26:03;;;;;;;;;;;1.30;99.90;;;;;;4948482;28;19922;-87
2021/12/03 00:28:29;;;;;;;;;;;1.30;99.90;;;;;;4966895;28;20041;-86
2021/12/03 00:30:55;;;;;;;;;;;1.30;99.90;;;;;;4970253;28;20429;-87
2021/12/03 00:33:20;;;;;;;;;;;1.30;99.90;;;;;;4953869;28;19925;-87
2021/12/03 00:35:46;;;;;;;;;;;1.40;99.90;;;;;;4954671;28;20010;-87
2021/12/03 00:38:11;;;;;;;;;;;1.30;99.90;;;;;;4955874;28;20020;-86
2021/12/03 00:40:39;;;;;;;;;;;1.30;99.90;;;;;;4955341;28;20212;-88
2021/12/03 00:43:05;;;;;;;;;;;1.40;99.90;;;;;;4951732;28;19922;-86
2021/12/03 00:45:31;;;;;;;;;;;1.40;99.90;;;;;;4947873;28;19953;-87
2021/12/03 00:47:57;;;;;;;;;;;1.40;99.90;;;;;;4970471;28;20000;-87
2021/12/03 00:50:23;;;;;;;;;;;1.40;99.90;;;;;;4969046;28;19980;-85
2021/12/03 00:52:49;;;;;;;;;;;1.40;99.90;;;;;;4979188;28;19990;-87
2021/12/03 00:55:16;;;;;;;;;;;1.50;99.90;;;;;;4980917;28;20008;-85
2021/12/03 00:57:41;;;;;;;;;;;1.50;99.90;;;;;;4951287;28;19995;-86
2021/12/03 01:00:10;;;;;;;;;;;1.50;99.90;;;;;;4959273;28;19925;-86
2021/12/03 01:02:35;;;;;;;;;;;1.50;99.90;;;;;;4954443;28;19933;-86
2021/12/03 01:05:01;;;;;;;;;;;1.50;99.90;;;;;;4953664;28;19922;-87
2021/12/03 01:07:26;;;;;;;;;;;1.50;99.90;;;;;;4953452;28;19931;-87
2021/12/03 01:09:52;;;;;;;;;;;1.60;99.90;;;;;;4953128;28;20011;-86
2021/12/03 01:12:17;;;;;;;;;;;1.50;99.90;;;;;;4961959;28;20024;-86
2021/12/03 01:14:43;;;;;;;;;;;1.50;99.90;;;;;;4970160;28;20005;-86
2021/12/03 01:17:08;;;;;;;;;;;1.50;99.90;;;;;;4960556;28;20366;-86
2021/12/03 01:19:34;;;;;;;;;;;1.50;99.90;;;;;;4952904;28;19932;-87
2021/12/03 01:22:02;;;;;;;;;;;1.50;99.90;;;;;;4950717;28;19997;-85
2021/12/03 01:24:28;;;;;;;;;;;1.60;99.90;;;;;;4953956;28;19926;-85
2021/12/03 01:27:00;;;;;;;;;;;1.50;99.90;;;;;;4957311;28;20032;-84
2021/12/03 01:29:25;;;;;;;;;;;1.50;99.90;;;;;;4950420;28;19922;-85
2021/12/03 01:31:53;;;;;;;;;;;1.50;99.90;;;;;;4957138;28;19928;-86
2021/12/03 01:34:19;;;;;;;;;;;1.50;99.90;;;;;;4960468;28;20418;-86
2021/12/03 01:36:44;;;;;;;;;;;1.50;99.90;;;;;;4952242;28;19922;-87
2021/12/03 01:39:12;;;;;;;;;;;1.50;99.90;;;;;;4952612;28;19922;-86
2021/12/03 01:41:37;;;;;;;;;;;1.50;99.90;;;;;;4952346;28;20296;-86
2021/12/03 01:44:07;;;;;;;;;;;1.50;99.90;;;;;;4974504;28;19936;-86
2021/12/03 01:46:35;;;;;;;;;;;1.50;99.90;;;;;;4964070;28;20295;-87
2021/12/03 01:49:03;;;;;;;;;;;1.50;99.90;;;;;;4955488;28;19921;-84
2021/12/03 01:51:29;;;;;;;;;;;1.50;99.90;;;;;;4961910;28;20266;-85
2021/12/03 01:53:55;;;;;;;;;;;1.40;99.90;;;;;;4953164;28;19922;-84
2021/12/03 01:56:21;;;;;;;;;;;1.40;99.90;;;;;;4952176;28;19980;-85
2021/12/03 01:58:48;;;;;;;;;;;1.40;99.90;;;;;;4961629;23;19934;-86
2021/12/03 02:01:15;;;;;;;;;;;1.40;99.90;;;;;;4964938;28;19950;-87
2021/12/03 02:03:48;;;;;;;;;;;1.40;99.90;;;;;;4953047;28;19929;-88
2021/12/03 02:06:14;;;;;;;;;;;1.40;99.90;;;;;;4951936;28;20535;-87
2021/12/03 02:08:41;;;;;;;;;;;1.40;99.90;;;;;;4947036;28;19932;-83
2021/12/03 02:16:08;;;;;;;;;;;1.30;99.90;;;;;;4849692;26;19936;-85
2021/12/03 02:18:34;;;;;;;;;;;1.30;99.90;;;;;;4956703;28;20353;-85
2021/12/03 02:21:00;;;;;;;;;;;2.90;99.90;;;;;;4963358;28;19969;-86
2021/12/03 02:27:19;;;;;;;;;;;1.30;99.90;;;;;;4960126;28;19981;-86
2021/12/03 02:29:54;;;;;;;;;;;0.40;99.90;;;;;;4957342;28;20498;-87
2021/12/03 02:32:19;;;;;;;;;;;1.40;99.90;;;;;;4964451;28;19928;-86
2021/12/03 02:34:45;;;;;;;;;;;1.30;99.90;;;;;;4966913;28;19926;-86
2021/12/03 02:37:17;;;;;;;;;;;1.30;99.90;;;;;;4955761;28;19922;-86
2021/12/03 02:39:42;;;;;;;;;;;1.30;99.90;;;;;;4974085;28;19932;-86
2021/12/03 02:42:08;;;;;;;;;;;1.30;99.90;;;;;;4971389;28;20683;-86
2021/12/03 02:44:34;;;;;;;;;;;1.30;99.90;;;;;;4979274;28;19957;-86
2021/12/03 02:47:09;;;;;;;;;;;1.20;99.90;;;;;;4977127;28;19937;-87
2021/12/03 02:49:44;;;;;;;;;;;2.40;99.90;;;;;;4959497;28;20418;-86
2021/12/03 02:52:22;;;;;;;;;;;1.20;99.90;;;;;;4956066;28;19922;-87
2021/12/03 02:54:59;;;;;;;;;;;2.30;99.90;;;;;;4969373;28;19922;-86
2021/12/03 02:57:34;;;;;;;;;;;0.10;99.90;;;;;;4967171;28;19922;-86
2021/12/03 03:00:26;;;;;;;;;;;1.20;99.90;;;;;;4954690;28;20005;-86
2021/12/03 03:02:52;;;;;;;;;;;1.30;99.90;;;;;;4957151;28;20416;-86
2021/12/03 03:05:42;;;;;;;;;;;1.20;99.90;;;;;;4956996;28;19937;-85
2021/12/03 03:08:14;;;;;;;;;;;1.30;99.90;;;;;;4964662;28;20502;-86
2021/12/03 03:10:42;;;;;;;;;;;1.60;99.90;;;;;;4956378;28;19925;-86
2021/12/03 03:13:08;;;;;;;;;;;1.00;99.90;;;;;;4960299;28;19977;-87
2021/12/03 03:16:01;;;;;;;;;;;1.30;99.90;;;;;;4967294;28;19925;-86
2021/12/03 03:18:28;;;;;;;;;;;1.30;99.90;;;;;;4943415;29;20397;-85
2021/12/03 03:21:23;;;;;;;;;;;1.30;99.90;;;;;;4956292;28;20357;-85
2021/12/03 03:23:52;;;;;;;;;;;1.40;99.90;;;;;;4876973;29;20399;-85
2021/12/03 03:29:19;;;;;;;;;;;1.30;99.90;;;;;;4943247;28;20244;-85
2021/12/03 03:31:46;;;;;;;;;;;1.50;99.90;;;;;;4964800;28;19987;-84
2021/12/03 03:34:11;;;;;;;;;;;1.50;99.90;;;;;;4973883;28;19926;-85
2021/12/03 03:36:38;;;;;;;;;;;1.50;99.90;;;;;;4974991;28;20322;-85
2021/12/03 03:39:08;;;;;;;;;;;1.50;99.90;;;;;;4954529;28;19980;-86
2021/12/03 03:41:34;;;;;;;;;;;1.50;99.90;;;;;;4965146;28;19922;-85
2021/12/03 03:44:00;;;;;;;;;;;1.60;99.90;;;;;;4956066;28;20012;-84
2021/12/03 03:46:25;;;;;;;;;;;1.60;99.90;;;;;;4961301;28;20053;-85
2021/12/03 03:48:51;;;;;;;;;;;1.60;99.90;;;;;;4973446;28;19922;-85
2021/12/03 03:51:17;;;;;;;;;;;1.60;99.90;;;;;;4958471;28;20002;-87
2021/12/03 03:53:42;;;;;;;;;;;1.60;99.90;;;;;;4955294;28;20024;-86
2021/12/03 03:56:11;;;;;;;;;;;1.60;99.90;;;;;;4974887;28;19991;-86
2021/12/03 03:58:37;;;;;;;;;;;1.70;99.90;;;;;;4962558;23;19968;-87
2021/12/03 04:01:04;;;;;;;;;;;1.70;99.90;;;;;;4950298;28;20421;-85
2021/12/03 04:03:30;;;;;;;;;;;1.70;99.90;;;;;;4967191;28;19944;-85
2021/12/03 04:05:59;;;;;;;;;;;1.70;99.90;;;;;;4950354;28;19921;-85
2021/12/03 04:08:28;;;;;;;;;;;1.70;99.90;;;;;;4956112;28;19922;-86
2021/12/03 04:10:54;;;;;;;;;;;1.70;99.90;;;;;;4970849;28;19964;-86
2021/12/03 04:13:19;;;;;;;;;;;1.70;99.90;;;;;;4948482;28;19932;-87
2021/12/03 04:15:45;;;;;;;;;;;1.70;99.90;;;;;;4960349;28;19977;-85
2021/12/03 04:18:10;;;;;;;;;;;1.70;99.90;;;;;;4965598;28;19922;-86
2021/12/03 04:23:19;;;;;;;;;;;1.70;99.90;;;;;;4993830;23;20012;-85
2021/12/03 04:25:50;;;;;;;;;;;1.70;99.90;;;;;;4976239;28;19972;-85
2021/12/03 04:28:16;;;;;;;;;;;1.70;99.90;;;;;;4955236;28;19976;-85
2021/12/03 04:30:48;;;;;;;;;;;1.60;99.90;;;;;;4956698;28;19922;-82
2021/12/03 04:33:26;;;;;;;;;;;1.80;99.90;;;;;;4974923;28;19944;-83
2021/12/03 04:35:52;;;;;;;;;;;1.80;99.90;;;;;;4988701;28;19933;-83
2021/12/03 04:38:30;;;;;;;;;;;1.70;99.90;;;;;;4983722;28;19989;-83
2021/12/03 04:40:56;;;;;;;;;;;1.90;99.90;;;;;;4994487;28;19921;-84
2021/12/03 04:43:25;;;;;;;;;;;1.40;99.90;;;;;;4973253;28;19922;-84
2021/12/03 04:45:54;;;;;;;;;;;1.80;99.90;;;;;;4962001;28;19922;-84
2021/12/03 04:48:35;;;;;;;;;;;0.70;99.90;;;;;;4956502;28;19973;-84
2021/12/03 04:51:32;;;;;;;;;;;1.70;99.90;;;;;;4966370;28;20028;-85
2021/12/03 04:54:01;;;;;;;;;;;1.70;99.90;;;;;;4954284;28;19946;-85
2021/12/03 04:56:38;;;;;;;;;;;1.80;99.90;;;;;;4954393;28;19936;-86
2021/12/03 04:59:04;;;;;;;;;;;1.70;99.90;;;;;;4953378;28;20012;-86
2021/12/03 05:01:42;;;;;;;;;;;2.00;99.90;;;;;;4952024;28;20347;-84
2021/12/03 05:04:20;;;;;;;;;;;1.90;99.90;;;;;;4952472;28;19938;-85
2021/12/03 05:09:32;;;;;;;;;;;1.60;99.90;;;;;;4970859;28;19932;-85
2021/12/03 05:11:59;;;;;;;;;;;1.70;99.90;;;;;;4952452;28;20382;-84
2021/12/03 05:14:49;;;;;;;;;;;4.20;99.90;;;;;;4954862;28;19962;-84
2021/12/03 05:17:15;;;;;;;;;;;2.00;99.90;;;;;;4954009;28;19929;-84
2021/12/03 05:36:43;;;;;;;;;;;1.70;99.90;;;;;;5009937;23;20560;-85
2021/12/03 05:39:09;;;;;;;;;;;1.70;99.90;;;;;;4952884;28;19922;-84
2021/12/03 05:41:37;;;;;;;;;;;1.70;99.90;;;;;;4950061;28;19945;-84
2021/12/03 05:44:03;;;;;;;;;;;1.70;99.90;;;;;;4953305;28;20006;-83
2021/12/03 05:46:30;;;;;;;;;;;1.70;99.90;;;;;;4960355;28;20004;-85
2021/12/03 05:48:55;;;;;;;;;;;1.70;99.90;;;;;;4964605;28;19929;-83
2021/12/03 05:51:21;;;;;;;;;;;1.70;99.90;;;;;;4954341;28;19921;-85
2021/12/03 05:53:47;;;;;;;;;;;1.70;99.90;;;;;;4953519;28;20353;-87
2021/12/03 05:56:13;;;;;;;;;;;1.70;99.90;;;;;;4952667;28;20024;-84
2021/12/03 06:02:42;;;;;;;;;;;1.70;99.90;;;;;;4966939;28;19929;-84
2021/12/03 06:05:11;;;;;;;;;;;1.70;99.90;;;;;;5390707;23;19913;-83
2021/12/03 06:11:16;;;;;;;;;;;-0.10;99.90;;;;;;4871616;29;20060;-84
2021/12/03 06:13:44;;;;;;;;;;;4.20;99.90;;;;;;4872569;29;20368;-84
2021/12/03 06:16:11;;;;;;;;;;;2.10;99.90;;;;;;4858113;29;19936;-85
2021/12/03 06:21:55;;;;;;;;;;;1.70;99.90;;;;;;4868371;29;19923;-86
2021/12/03 06:24:22;;;;;;;;;;;1.50;99.90;;;;;;4921330;29;20401;-85
2021/12/03 06:26:48;;;;;;;;;;;1.70;99.90;;;;;;4914551;29;20457;-87
2021/12/03 06:29:13;;;;;;;;;;;1.70;99.90;;;;;;4925869;29;19922;-86
2021/12/03 06:31:39;;;;;;;;;;;2.00;99.90;;;;;;4933150;29;19922;-87
2021/12/03 06:34:04;;;;;;;;;;;1.50;99.90;;;;;;4929548;29;20372;-87
2021/12/03 06:36:49;;;;;;;;;;;1.70;99.90;;;;;;4919553;29;19967;-87
2021/12/03 06:52:10;;;;;;;;;;;1.90;99.90;;;;;;4979731;28;19933;-89
2021/12/03 07:02:15;;;;;;;;;;;1.90;99.90;;;;;;4886705;29;20291;-88
2021/12/03 07:08:08;;;;;;;;;;;2.00;99.90;;;;;;4886804;29;20432;-88
2021/12/03 07:13:09;;;;;;;;;;;2.10;99.90;;;;;;5069047;23;20004;-89
2021/12/03 07:15:35;;;;;;;;;;;2.10;99.90;;;;;;4957514;28;19930;-88
2021/12/03 07:18:04;;;;;;;;;;;2.10;99.90;;;;;;4959171;28;20615;-88
2021/12/03 07:44:19;;;;;;;;;;;2.20;99.90;;;;;;5135636;23;19929;-86
2021/12/03 07:46:49;;;;;;;;;;;2.20;99.90;;;;;;4973061;28;19926;-86
2021/12/03 07:49:14;;;;;;;;;;;2.20;99.90;;;;;;4953678;28;19940;-86
2021/12/03 07:51:44;;;;;;;;;;;2.20;99.90;;;;;;4952873;28;19922;-85
2021/12/03 07:54:13;;;;;;;;;;;2.30;99.90;;;;;;4963788;28;19933;-88
2021/12/03 08:04:05;;;;;;;;;;;3.20;99.90;;;;;;4951631;28;19969;-85
2021/12/03 08:07:05;;;;;;;;;;;2.40;99.90;;;;;;4878761;29;19924;-84
2021/12/03 08:30:00;;;;;;;;;;;2.40;99.90;;;;;;4986144;23;19928;-88
2021/12/03 08:35:08;;;;;;;;;;;2.40;99.90;;;;;;5609249;23;19922;-88
2021/12/03 08:37:33;;;;;;;;;;;2.50;99.90;;;;;;4980388;23;19956;-84
2021/12/03 08:42:33;;;;;;;;;;;2.50;99.90;;;;;;4971612;28;19922;-84
2021/12/03 08:45:04;;;;;;;;;;;2.70;99.90;;;;;;4952404;28;19944;-83
2021/12/03 09:24:43;;;;;;;;;;;1.00;99.90;;;;;;4978143;28;19929;-86
2021/12/03 09:53:15;;;;;;;;;;;2.80;99.90;;;;;;5343852;22;19931;-84
2021/12/03 10:00:01;;;;;;;;;;;3.20;99.90;;;;;;5059232;22;19920;-82
2021/12/03 10:19:35;;;;;;;;;;;3.30;99.90;;;;;;5196581;23;19925;-83
2021/12/03 11:25:50;;;;;;;;;;;2.70;99.90;;;;;;5044973;22;20312;-82
2021/12/03 14:04:58;;;;;;;;;;;3.70;99.90;;;;;;5074888;22;19963;-88
2021/12/03 15:01:44;;;;;;;;;;;4.00;99.90;;;;;;5917346;22;19933;-86
2021/12/03 15:07:39;;;;;;;;;;;4.00;99.90;;;;;;5020806;28;20333;-92
2021/12/03 16:20:20;;;;;;;;;;;3.40;99.90;;;;;;5012888;28;19972;-91
2021/12/03 16:52:31;;;;;;;;;;;3.30;99.90;;;;;;5550764;22;19931;-81
2021/12/03 16:55:01;;;;;;;;;;;4.10;99.90;;;;;;5031339;28;20293;-86
2021/12/03 17:50:48;;;;;;;;;;;4.20;99.90;;;;;;5045019;28;19924;-86
2021/12/03 17:53:30;;;;;;;;;;;4.20;99.90;;;;;;5037600;28;19963;-85
2021/12/03 17:59:21;;;;;;;;;;;4.20;99.90;;;;;;5503787;23;20485;-87
2021/12/03 18:54:30;;;;;;;;;;;4.20;99.90;;;;;;4974179;28;19980;-86
2021/12/03 18:57:21;;;;;;;;;;;4.10;99.90;;;;;;4975416;28;19938;-87
2021/12/03 19:00:03;;;;;;;;;;;4.30;99.90;;;;;;4985428;28;19937;-89
2021/12/03 19:02:51;;;;;;;;;;;4.40;99.90;;;;;;5024976;28;20019;-87
2021/12/03 19:08:33;;;;;;;;;;;5.20;99.90;;;;;;5018953;28;19920;-94
2021/12/03 19:11:29;;;;;;;;;;;4.30;99.90;;;;;;5031418;28;19968;-87
2021/12/03 19:26:10;;;;;;;;;;;4.30;99.90;;;;;;5072052;22;20015;-92
2021/12/03 19:28:49;;;;;;;;;;;2.90;99.90;;;;;;5036155;28;20516;-88
2021/12/03 19:31:37;;;;;;;;;;;4.40;99.90;;;;;;5019948;28;20459;-90
2021/12/03 19:34:30;;;;;;;;;;;4.40;99.90;;;;;;5033349;28;19933;-88
2021/12/03 19:37:39;;;;;;;;;;;4.40;99.90;;;;;;5004195;28;19925;-89
2021/12/03 19:40:08;;;;;;;;;;;4.80;99.90;;;;;;5056151;28;19963;-91
2021/12/03 19:45:42;;;;;;;;;;;4.40;99.90;;;;;;5006793;28;20024;-90
2021/12/03 19:54:54;;;;;;;;;;;4.40;99.90;;;;;;5039520;22;19925;-89
2021/12/03 19:57:24;;;;;;;;;;;1.90;99.90;;;;;;5016304;28;19984;-87
2021/12/03 20:18:33;;;;;;;;;;;3.40;99.90;;;;;;4983617;28;19926;-87
2021/12/03 20:27:12;;;;;;;;;;;4.50;99.90;;;;;;4993120;28;19929;-86
2021/12/03 20:57:51;;;;;;;;;;;5.70;99.90;;;;;;4980267;28;19969;-89
2021/12/03 21:08:17;;;;;;;;;;;4.60;99.90;;;;;;4970954;28;19930;-91
2021/12/03 21:11:02;;;;;;;;;;;4.60;99.90;;;;;;4984614;28;19925;-85
2021/12/03 21:13:31;;;;;;;;;;;4.60;99.90;;;;;;4988047;28;20381;-87
2021/12/03 21:20:57;;;;;;;;;;;4.60;99.90;;;;;;4972120;28;19975;-86
2021/12/03 21:23:28;;;;;;;;;;;4.60;99.90;;;;;;4969898;28;19937;-89
2021/12/03 21:25:56;;;;;;;;;;;4.60;99.90;;;;;;4971915;28;19933;-86
2021/12/03 21:31:47;;;;;;;;;;;4.70;99.90;;;;;;5018219;28;19933;-87
2021/12/03 21:43:41;;;;;;;;;;;4.70;99.90;;;;;;5007025;28;20305;-86
2021/12/03 21:46:07;;;;;;;;;;;5.40;99.90;;;;;;4990995;28;19933;-85
2021/12/03 21:48:52;;;;;;;;;;;6.10;99.90;;;;;;4991340;28;20257;-87
2021/12/03 21:54:33;;;;;;;;;;;4.90;99.90;;;;;;4991230;28;20278;-86
2021/12/03 22:00:21;;;;;;;;;;;4.60;99.90;;;;;;5008637;28;19992;-85
2021/12/03 22:02:47;;;;;;;;;;;4.50;99.90;;;;;;5097725;23;19964;-87
2021/12/03 22:08:50;;;;;;;;;;;4.60;99.90;;;;;;4989891;28;20009;-86
2021/12/03 22:11:26;;;;;;;;;;;4.60;99.90;;;;;;4989635;28;19929;-85
2021/12/03 22:13:51;;;;;;;;;;;3.10;99.90;;;;;;4995968;23;19934;-84
2021/12/03 22:16:17;;;;;;;;;;;4.60;99.90;;;;;;4968736;28;19926;-83
2021/12/03 22:21:32;;;;;;;;;;;4.60;99.90;;;;;;5093716;22;19925;-86
2021/12/03 22:24:40;;;;;;;;;;;4.60;99.90;;;;;;4990423;28;19932;-84
2021/12/03 22:27:11;;;;;;;;;;;4.50;99.90;;;;;;4983416;28;20004;-84
2021/12/03 22:29:46;;;;;;;;;;;5.80;99.90;;;;;;4991521;28;20374;-84
2021/12/03 22:32:12;;;;;;;;;;;4.50;99.90;;;;;;4989533;28;19925;-84
2021/12/03 22:34:56;;;;;;;;;;;4.60;99.90;;;;;;4987923;28;19929;-85
2021/12/03 22:37:22;;;;;;;;;;;4.90;99.90;;;;;;4987715;28;19939;-84
2021/12/03 22:39:47;;;;;;;;;;;4.50;99.90;;;;;;4988868;28;19973;-85
2021/12/03 22:42:13;;;;;;;;;;;4.60;99.90;;;;;;4988251;28;19929;-84
2021/12/03 22:44:38;;;;;;;;;;;5.60;99.90;;;;;;4992722;28;19926;-83
2021/12/03 22:52:11;;;;;;;;;;;4.50;99.90;;;;;;4991874;28;19933;-83
2021/12/03 22:54:38;;;;;;;;;;;4.60;99.90;;;;;;4974854;28;20384;-83
2021/12/03 22:57:05;;;;;;;;;;;4.50;99.90;;;;;;4986930;28;19926;-84
2021/12/03 22:59:30;;;;;;;;;;;4.60;99.90;;;;;;4994950;28;20393;-83
2021/12/03 23:01:56;;;;;;;;;;;4.50;99.90;;;;;;4993182;28;19968;-83
2021/12/03 23:04:21;;;;;;;;;;;4.50;99.90;;;;;;4994351;28;19929;-83
2021/12/03 23:06:47;;;;;;;;;;;4.60;99.90;;;;;;4994017;28;19973;-83
2021/12/03 23:09:12;;;;;;;;;;;4.50;99.90;;;;;;4993601;28;20281;-83
2021/12/03 23:11:38;;;;;;;;;;;4.50;99.90;;;;;;4985966;28;19930;-83
2021/12/03 23:14:04;;;;;;;;;;;4.50;99.90;;;;;;4993717;28;19975;-83
2021/12/03 23:16:29;;;;;;;;;;;4.60;99.90;;;;;;4991644;28;19932;-83
2021/12/03 23:18:55;;;;;;;;;;;4.50;99.90;;;;;;4990836;28;20028;-84
2021/12/03 23:21:20;;;;;;;;;;;4.60;99.90;;;;;;5006447;28;19920;-83
2021/12/03 23:23:46;;;;;;;;;;;4.50;99.90;;;;;;5011394;28;19930;-82
2021/12/03 23:26:12;;;;;;;;;;;4.50;99.90;;;;;;4999338;28;20031;-82
2021/12/03 23:28:37;;;;;;;;;;;4.50;99.90;;;;;;4994752;28;19983;-83
2021/12/03 23:31:04;;;;;;;;;;;4.50;99.90;;;;;;4993692;28;19925;-83
2021/12/03 23:33:32;;;;;;;;;;;4.50;99.90;;;;;;4993597;28;19968;-84
2021/12/03 23:36:01;;;;;;;;;;;4.50;99.90;;;;;;4993034;28;19921;-83
2021/12/03 23:38:27;;;;;;;;;;;4.60;99.90;;;;;;4993064;28;19940;-83
2021/12/03 23:40:52;;;;;;;;;;;4.60;99.90;;;;;;4991974;28;20028;-83
2021/12/03 23:43:36;;;;;;;;;;;4.60;99.90;;;;;;5002228;23;19984;-83
2021/12/03 23:46:08;;;;;;;;;;;4.50;99.90;;;;;;5001914;28;19940;-83
2021/12/03 23:48:52;;;;;;;;;;;3.80;99.90;;;;;;4977247;28;20424;-85
2021/12/03 23:51:54;;;;;;;;;;;4.60;99.90;;;;;;5043279;23;20020;-82
2021/12/03 23:54:47;;;;;;;;;;;3.50;99.90;;;;;;4985205;28;19949;-84
2021/12/03 23:57:13;;;;;;;;;;;4.60;99.90;;;;;;4986217;28;19972;-83
2021/12/03 23:59:40;;;;;;;;;;;4.50;99.90;;;;;;4991893;28;19930;-84
